createdAt,value
2018-10-01T00:01:25.426Z,54.33
2018-10-01T00:03:53.075Z,54.62
2018-10-01T00:06:20.738Z,54.55
2018-10-01T00:08:48.358Z,53.85
2018-10-01T00:11:15.982Z,54.61
2018-10-01T00:13:43.621Z,54.54
2018-10-01T00:16:11.246Z,54.62
2018-10-01T00:18:38.909Z,54.61
2018-10-01T00:21:12.267Z,54.60
2018-10-01T00:23:39.917Z,54.67
2018-10-01T00:26:07.549Z,54.09
2018-10-01T00:28:35.420Z,54.51
2018-10-01T00:31:03.057Z,53.95
2018-10-01T00:33:30.714Z,54.01
2018-10-01T00:35:58.332Z,54.09
2018-10-01T00:38:26.012Z,54.70
2018-10-01T00:40:53.644Z,54.15
2018-10-01T00:43:21.305Z,54.60
2018-10-01T00:45:48.924Z,54.61
2018-10-01T00:48:16.557Z,54.13
2018-10-01T00:50:44.182Z,54.32
2018-10-01T00:53:11.798Z,54.61
2018-10-01T00:55:39.421Z,54.24
2018-10-01T00:58:07.167Z,54.42
2018-10-01T01:00:34.956Z,54.63
2018-10-01T01:03:02.618Z,54.71
2018-10-01T01:05:30.261Z,54.15
2018-10-01T01:07:57.883Z,54.37
2018-10-01T01:10:25.631Z,53.94
2018-10-01T01:12:53.351Z,54.68
2018-10-01T01:15:21.059Z,54.67
2018-10-01T01:17:48.699Z,54.67
2018-10-01T01:20:16.333Z,54.49
2018-10-01T01:22:43.970Z,54.72
2018-10-01T01:25:11.585Z,54.69
2018-10-01T01:27:39.235Z,54.57
2018-10-01T01:30:06.960Z,54.36
2018-10-01T01:32:34.641Z,54.17
2018-10-01T01:35:02.257Z,54.17
2018-10-01T01:37:29.893Z,53.96
2018-10-01T01:39:57.517Z,54.09
2018-10-01T01:42:25.166Z,54.00
2018-10-01T01:44:52.804Z,54.54
2018-10-01T01:47:20.473Z,54.13
2018-10-01T01:49:48.099Z,53.99
2018-10-01T01:52:15.734Z,54.57
2018-10-01T01:54:43.361Z,53.95
2018-10-01T01:57:11.001Z,53.97
2018-10-01T01:59:38.665Z,54.21
2018-10-01T02:02:06.299Z,54.44
2018-10-01T02:04:33.921Z,54.30
2018-10-01T02:07:01.573Z,54.41
2018-10-01T02:09:29.192Z,54.49
2018-10-01T02:11:56.930Z,54.76
2018-10-01T02:14:24.570Z,54.81
2018-10-01T02:16:52.195Z,54.77
2018-10-01T02:19:19.816Z,54.79
2018-10-01T02:21:47.446Z,54.20
2018-10-01T02:24:15.104Z,54.81
2018-10-01T02:26:42.758Z,54.77
2018-10-01T02:29:10.459Z,54.28
2018-10-01T02:31:38.094Z,54.85
2018-10-01T02:34:05.739Z,54.21
2018-10-01T02:36:33.373Z,54.37
2018-10-01T02:39:00.996Z,54.11
2018-10-01T02:41:28.642Z,53.89
2018-10-01T02:43:56.260Z,54.87
2018-10-01T02:46:23.949Z,54.42
2018-10-01T02:48:51.583Z,54.89
2018-10-01T02:51:19.214Z,54.66
2018-10-01T02:53:52.185Z,54.83
2018-10-01T02:56:19.814Z,54.66
2018-10-01T02:58:47.441Z,54.33
2018-10-01T03:01:15.069Z,54.24
2018-10-01T03:03:42.730Z,54.32
2018-10-01T03:06:10.363Z,54.22
2018-10-01T03:08:38.010Z,54.60
2018-10-01T03:11:05.633Z,54.66
2018-10-01T03:13:33.279Z,54.15
2018-10-01T03:16:00.940Z,54.30
2018-10-01T03:18:28.563Z,54.63
2018-10-01T03:20:56.194Z,54.16
2018-10-01T03:23:23.836Z,54.59
2018-10-01T03:25:51.502Z,54.13
2018-10-01T03:28:19.154Z,54.13
2018-10-01T03:30:46.830Z,54.01
2018-10-01T03:33:14.505Z,54.27
2018-10-01T03:35:42.140Z,54.17
2018-10-01T03:38:09.775Z,54.44
2018-10-01T03:40:37.406Z,55.02
2018-10-01T03:43:05.057Z,54.16
2018-10-01T03:45:32.691Z,54.15
2018-10-01T03:48:00.317Z,54.19
2018-10-01T03:50:27.954Z,53.92
2018-10-01T03:52:55.577Z,54.16
2018-10-01T03:55:23.226Z,54.62
2018-10-01T03:57:50.871Z,54.61
2018-10-01T04:00:18.558Z,54.90
2018-10-01T04:02:46.276Z,54.71
2018-10-01T04:05:13.906Z,54.17
2018-10-01T04:07:41.772Z,54.74
2018-10-01T04:10:09.392Z,54.84
2018-10-01T04:12:37.014Z,54.70
2018-10-01T04:15:04.632Z,54.54
2018-10-01T04:17:32.274Z,54.19
2018-10-01T04:19:59.905Z,54.92
2018-10-01T04:22:36.546Z,54.21
2018-10-01T04:25:04.570Z,54.46
2018-10-01T04:27:32.309Z,54.39
2018-10-01T04:29:59.942Z,54.21
2018-10-01T04:32:27.572Z,54.79
2018-10-01T04:34:55.234Z,54.61
2018-10-01T04:37:22.856Z,55.10
2018-10-01T04:39:50.495Z,54.23
2018-10-01T04:42:18.117Z,54.20
2018-10-01T04:44:45.767Z,54.23
2018-10-01T04:47:13.393Z,54.99
2018-10-01T04:49:41.022Z,54.30
2018-10-01T04:52:08.650Z,54.31
2018-10-01T04:54:36.269Z,54.32
2018-10-01T04:57:04.012Z,54.24
2018-10-01T04:59:31.643Z,55.10
2018-10-01T05:01:59.291Z,54.40
2018-10-01T05:04:26.925Z,54.35
2018-10-01T05:06:54.557Z,54.36
2018-10-01T05:09:22.285Z,54.20
2018-10-01T05:11:49.950Z,54.81
2018-10-01T05:14:17.618Z,55.14
2018-10-01T05:16:45.317Z,54.31
2018-10-01T05:19:12.978Z,54.29
2018-10-01T05:21:40.647Z,54.32
2018-10-01T05:24:08.281Z,54.50
2018-10-01T05:26:35.939Z,55.11
2018-10-01T05:29:03.681Z,54.95
2018-10-01T05:31:31.309Z,55.14
2018-10-01T05:33:58.966Z,54.72
2018-10-01T05:36:26.594Z,54.54
2018-10-01T05:38:54.225Z,54.19
2018-10-01T05:41:21.865Z,55.19
2018-10-01T05:43:49.494Z,55.14
2018-10-01T05:46:17.141Z,55.21
2018-10-01T05:48:44.848Z,55.10
2018-10-01T05:51:12.485Z,55.13
2018-10-01T05:53:40.128Z,54.63
2018-10-01T05:56:07.747Z,54.46
2018-10-01T05:58:35.384Z,54.99
2018-10-01T06:01:03.038Z,54.44
2018-10-01T06:03:30.734Z,54.56
2018-10-01T06:05:58.372Z,54.49
2018-10-01T06:08:26.050Z,54.42
2018-10-01T06:10:53.689Z,55.17
2018-10-01T06:13:21.300Z,54.53
2018-10-01T06:15:48.949Z,55.12
2018-10-01T06:18:16.607Z,54.49
2018-10-01T06:20:44.209Z,54.51
2018-10-01T06:23:11.833Z,54.99
2018-10-01T06:25:39.453Z,54.76
2018-10-01T06:28:07.085Z,54.57
2018-10-01T06:30:34.724Z,54.77
2018-10-01T06:33:02.590Z,55.37
2018-10-01T06:35:30.254Z,54.90
2018-10-01T06:37:57.903Z,54.58
2018-10-01T06:40:25.538Z,54.58
2018-10-01T06:42:53.161Z,55.29
2018-10-01T06:45:20.829Z,55.17
2018-10-01T06:47:48.447Z,54.58
2018-10-01T06:50:16.118Z,54.63
2018-10-01T06:52:43.796Z,54.92
2018-10-01T06:55:11.443Z,54.95
2018-10-01T06:57:39.083Z,54.72
2018-10-01T07:00:07.177Z,54.66
2018-10-01T07:02:34.827Z,54.63
2018-10-01T07:05:02.456Z,54.57
2018-10-01T07:07:30.176Z,54.70
2018-10-01T07:09:57.810Z,54.73
2018-10-01T07:12:25.434Z,55.48
2018-10-01T07:14:53.088Z,54.64
2018-10-01T07:17:20.845Z,55.32
2018-10-01T07:19:48.394Z,55.49
2018-10-01T07:22:16.031Z,55.70
2018-10-01T07:24:43.666Z,55.25
2018-10-01T07:27:11.357Z,55.48
2018-10-01T07:29:39.035Z,55.46
2018-10-01T07:32:06.661Z,54.96
2018-10-01T07:34:34.297Z,55.28
2018-10-01T07:37:02.044Z,55.24
2018-10-01T07:39:29.681Z,54.60
2018-10-01T07:41:57.313Z,55.25
2018-10-01T07:44:24.945Z,55.53
2018-10-01T07:46:52.581Z,55.43
2018-10-01T07:49:20.246Z,55.47
2018-10-01T07:51:47.875Z,54.63
2018-10-01T07:54:15.556Z,54.75
2018-10-01T07:56:43.190Z,54.96
2018-10-01T07:59:10.819Z,54.86
2018-10-01T08:01:38.472Z,54.67
2018-10-01T08:04:06.190Z,54.64
2018-10-01T08:06:33.863Z,55.21
2018-10-01T08:09:01.533Z,55.18
2018-10-01T08:11:29.231Z,55.05
2018-10-01T08:13:56.893Z,54.54
2018-10-01T08:16:24.544Z,55.19
2018-10-01T08:18:52.174Z,55.18
2018-10-01T08:21:19.808Z,55.33
2018-10-01T08:23:47.888Z,54.68
2018-10-01T08:26:15.629Z,55.24
2018-10-01T08:28:43.215Z,54.28
2018-10-01T08:31:10.844Z,54.19
2018-10-01T08:33:38.496Z,55.07
2018-10-01T08:36:06.505Z,54.91
2018-10-01T08:38:34.230Z,54.83
2018-10-01T08:41:01.841Z,54.81
2018-10-01T08:43:29.466Z,54.69
2018-10-01T08:45:57.106Z,54.26
2018-10-01T08:48:26.098Z,53.97
2018-10-01T08:50:58.916Z,54.62
2018-10-01T08:53:37.932Z,54.47
2018-10-01T08:56:05.539Z,53.75
2018-10-01T08:58:33.159Z,54.43
2018-10-01T09:01:00.853Z,53.78
2018-10-01T09:03:28.483Z,53.87
2018-10-01T09:05:56.127Z,54.57
2018-10-01T09:08:23.855Z,54.63
2018-10-01T09:10:51.444Z,54.51
2018-10-01T09:13:19.080Z,54.75
2018-10-01T09:15:46.702Z,53.72
2018-10-01T09:18:14.333Z,54.42
2018-10-01T09:20:42.007Z,53.99
2018-10-01T09:23:09.747Z,53.35
2018-10-01T09:25:37.384Z,54.00
2018-10-01T09:28:05.098Z,53.99
2018-10-01T09:30:32.734Z,53.99
2018-10-01T09:33:00.406Z,53.79
2018-10-01T09:35:28.082Z,53.72
2018-10-01T09:37:55.742Z,53.87
2018-10-01T09:40:23.379Z,53.69
2018-10-01T09:42:51.042Z,53.71
2018-10-01T09:45:18.689Z,53.59
2018-10-01T09:47:46.338Z,54.13
2018-10-01T09:50:14.033Z,53.74
2018-10-01T09:52:41.629Z,53.93
2018-10-01T09:55:09.284Z,53.47
2018-10-01T09:57:36.896Z,54.00
2018-10-01T10:00:04.549Z,53.19
2018-10-01T10:02:32.203Z,53.83
2018-10-01T10:04:59.850Z,53.40
2018-10-01T10:07:27.490Z,54.07
2018-10-01T10:09:55.121Z,54.16
2018-10-01T10:12:22.770Z,53.21
2018-10-01T10:14:50.420Z,53.67
2018-10-01T10:17:18.080Z,54.19
2018-10-01T10:19:45.697Z,54.13
2018-10-01T10:22:13.387Z,53.33
2018-10-01T10:24:41.087Z,53.33
2018-10-01T10:27:08.790Z,53.67
2018-10-01T10:29:36.399Z,53.47
2018-10-01T10:32:04.051Z,53.82
2018-10-01T10:34:31.745Z,54.30
2018-10-01T10:36:59.380Z,53.53
2018-10-01T10:39:27.057Z,53.41
2018-10-01T10:41:54.727Z,54.02
2018-10-01T10:44:22.376Z,54.20
2018-10-01T10:46:50.025Z,53.42
2018-10-01T10:49:17.650Z,54.20
2018-10-01T10:51:45.264Z,53.52
2018-10-01T10:54:12.892Z,53.71
2018-10-01T10:56:40.613Z,53.68
2018-10-01T10:59:08.210Z,53.75
2018-10-01T11:01:35.835Z,54.51
2018-10-01T11:04:03.500Z,54.49
2018-10-01T11:06:31.126Z,54.41
2018-10-01T11:08:58.753Z,54.58
2018-10-01T11:11:26.377Z,53.57
2018-10-01T11:13:54.071Z,54.45
2018-10-01T11:16:21.661Z,54.38
2018-10-01T11:18:49.423Z,54.23
2018-10-01T11:21:17.057Z,53.68
2018-10-01T11:23:44.625Z,54.35
2018-10-01T11:26:12.254Z,54.61
2018-10-01T11:28:39.912Z,54.54
2018-10-01T11:31:07.715Z,53.90
2018-10-01T11:33:35.334Z,54.11
2018-10-01T11:36:02.989Z,54.47
2018-10-01T11:38:30.628Z,54.41
2018-10-01T11:40:58.261Z,53.89
2018-10-01T11:43:25.908Z,54.65
2018-10-01T11:45:53.532Z,54.04
2018-10-01T11:48:21.166Z,53.83
2018-10-01T11:50:48.802Z,53.87
2018-10-01T11:53:16.441Z,54.64
2018-10-01T11:55:44.071Z,54.16
2018-10-01T11:58:11.706Z,54.07
2018-10-01T12:00:39.392Z,54.03
2018-10-01T12:03:07.054Z,53.72
2018-10-01T12:05:34.695Z,54.02
2018-10-01T12:08:02.356Z,53.92
2018-10-01T12:10:30.070Z,54.19
2018-10-01T12:12:57.765Z,54.16
2018-10-01T12:15:25.492Z,54.48
2018-10-01T12:17:53.090Z,54.78
2018-10-01T12:20:20.728Z,54.09
2018-10-01T12:22:48.373Z,54.32
2018-10-01T12:25:16.026Z,54.71
2018-10-01T12:27:43.716Z,54.02
2018-10-01T12:30:11.318Z,54.41
2018-10-01T12:32:38.952Z,54.24
2018-10-01T12:35:06.653Z,54.56
2018-10-01T12:37:34.373Z,54.51
2018-10-01T12:40:02.025Z,54.04
2018-10-01T12:42:29.734Z,54.34
2018-10-01T12:44:57.570Z,54.82
2018-10-01T12:47:25.141Z,53.87
2018-10-01T12:49:52.769Z,54.67
2018-10-01T12:52:20.404Z,54.07
2018-10-01T12:54:48.066Z,54.67
2018-10-01T12:57:15.782Z,53.72
2018-10-01T12:59:43.510Z,54.81
2018-10-01T13:02:11.049Z,54.68
2018-10-01T13:04:38.679Z,54.63
2018-10-01T13:07:06.318Z,54.13
2018-10-01T13:09:33.973Z,54.17
2018-10-01T13:12:01.634Z,54.46
2018-10-01T13:14:29.322Z,54.10
2018-10-01T13:16:56.996Z,54.80
2018-10-01T13:19:24.654Z,54.09
2018-10-01T13:21:52.282Z,54.77
2018-10-01T13:24:20.036Z,53.94
2018-10-01T13:26:47.590Z,54.01
2018-10-01T13:29:15.224Z,54.29
2018-10-01T13:31:42.863Z,53.72
2018-10-01T13:34:10.490Z,54.46
2018-10-01T13:36:38.246Z,53.99
2018-10-01T13:39:07.078Z,54.14
2018-10-01T13:41:34.723Z,54.61
2018-10-01T13:44:02.389Z,54.76
2018-10-01T13:46:30.042Z,54.01
2018-10-01T13:48:57.699Z,54.19
2018-10-01T13:51:25.316Z,54.35
2018-10-01T13:53:52.958Z,55.09
2018-10-01T13:56:20.601Z,54.31
2018-10-01T13:58:48.237Z,54.87
2018-10-01T14:01:15.918Z,54.75
2018-10-01T14:03:43.596Z,54.28
2018-10-01T14:06:11.255Z,54.85
2018-10-01T14:08:38.883Z,54.97
2018-10-01T14:11:06.552Z,54.43
2018-10-01T14:13:34.224Z,54.38
2018-10-01T14:16:01.853Z,54.31
2018-10-01T14:18:29.491Z,55.12
2018-10-01T14:20:57.133Z,55.30
2018-10-01T14:23:25.301Z,55.13
2018-10-01T14:25:53.016Z,54.72
2018-10-01T14:28:20.678Z,55.20
2018-10-01T14:30:48.399Z,55.20
2018-10-01T14:33:15.985Z,54.45
2018-10-01T14:35:43.617Z,55.21
2018-10-01T14:38:11.274Z,55.36
2018-10-01T14:40:38.911Z,54.70
2018-10-01T14:43:06.575Z,55.00
2018-10-01T14:45:34.200Z,55.38
2018-10-01T14:48:01.888Z,54.53
2018-10-01T14:50:29.509Z,55.16
2018-10-01T14:52:57.155Z,55.25
2018-10-01T14:55:24.806Z,55.21
2018-10-01T14:57:52.432Z,54.67
2018-10-01T15:00:20.135Z,54.96
2018-10-01T15:02:47.723Z,54.65
2018-10-01T15:05:15.362Z,54.50
2018-10-01T15:07:43.015Z,55.18
2018-10-01T15:10:10.664Z,54.83
2018-10-01T15:12:38.311Z,54.57
2018-10-01T15:15:05.965Z,54.59
2018-10-01T15:17:33.597Z,55.14
2018-10-01T15:20:01.240Z,54.84
2018-10-01T15:22:28.993Z,54.60
2018-10-01T15:24:56.714Z,55.38
2018-10-01T15:27:24.345Z,55.45
2018-10-01T15:29:51.985Z,55.05
2018-10-01T15:32:19.613Z,55.49
2018-10-01T15:34:47.249Z,55.06
2018-10-01T15:37:14.903Z,55.12
2018-10-01T15:39:42.575Z,54.67
2018-10-01T15:42:10.267Z,54.77
2018-10-01T15:44:37.870Z,54.86
2018-10-01T15:47:05.528Z,55.57
2018-10-01T15:49:33.164Z,55.56
2018-10-01T15:52:00.823Z,54.86
2018-10-01T15:54:28.461Z,54.83
2018-10-01T15:56:56.077Z,55.39
2018-10-01T15:59:23.704Z,54.88
2018-10-01T16:01:51.547Z,55.55
2018-10-01T16:04:18.972Z,55.16
2018-10-01T16:06:46.610Z,55.81
2018-10-01T16:09:14.257Z,54.79
2018-10-01T16:11:41.879Z,55.57
2018-10-01T16:14:09.513Z,55.22
2018-10-01T16:16:37.225Z,54.84
2018-10-01T16:19:04.903Z,54.85
2018-10-01T16:21:32.586Z,54.78
2018-10-01T16:26:33.346Z,54.79
2018-10-01T16:29:00.977Z,55.67
2018-10-01T16:31:28.661Z,55.33
2018-10-01T16:33:56.312Z,55.82
2018-10-01T16:36:23.944Z,55.00
2018-10-01T16:38:51.627Z,55.12
2018-10-01T16:41:19.301Z,55.23
2018-10-01T16:43:46.996Z,54.86
2018-10-01T16:46:14.690Z,55.04
2018-10-01T16:48:42.331Z,55.21
2018-10-01T16:51:10.094Z,55.15
2018-10-01T16:53:37.717Z,54.84
2018-10-01T16:56:05.403Z,55.41
2018-10-01T16:58:33.038Z,55.10
2018-10-01T17:01:00.679Z,55.24
2018-10-01T17:03:28.326Z,55.48
2018-10-01T17:05:57.813Z,54.68
2018-10-01T17:08:26.147Z,55.18
2018-10-01T17:10:53.889Z,55.22
2018-10-01T17:13:21.887Z,55.14
2018-10-01T17:15:49.971Z,54.91
2018-10-01T17:18:17.605Z,54.86
2018-10-01T17:20:45.221Z,55.44
2018-10-01T17:23:12.886Z,55.30
2018-10-01T17:25:40.517Z,54.50
2018-10-01T17:28:08.196Z,54.88
2018-10-01T17:30:36.154Z,54.57
2018-10-01T17:33:03.829Z,54.34
2018-10-01T17:35:31.458Z,55.28
2018-10-01T17:37:59.073Z,54.39
2018-10-01T17:40:26.722Z,55.22
2018-10-01T17:42:54.364Z,54.47
2018-10-01T17:45:21.991Z,55.26
2018-10-01T17:47:49.613Z,54.39
2018-10-01T17:50:17.338Z,54.93
2018-10-01T17:52:44.979Z,54.37
2018-10-01T17:55:12.598Z,54.84
2018-10-01T17:57:40.254Z,54.67
2018-10-01T18:00:08.097Z,54.99
2018-10-01T18:02:35.714Z,54.65
2018-10-01T18:05:03.338Z,54.58
2018-10-01T18:07:30.981Z,54.49
2018-10-01T18:09:58.613Z,54.51
2018-10-01T18:12:26.250Z,54.57
2018-10-01T18:14:53.890Z,54.45
2018-10-01T18:17:21.508Z,55.09
2018-10-01T18:19:49.141Z,55.19
2018-10-01T18:22:16.813Z,54.69
2018-10-01T18:24:44.456Z,55.19
2018-10-01T18:27:12.103Z,54.74
2018-10-01T18:29:39.802Z,54.90
2018-10-01T18:32:07.589Z,54.91
2018-10-01T18:34:35.323Z,55.48
2018-10-01T18:37:02.991Z,55.04
2018-10-01T18:39:31.176Z,55.07
2018-10-01T18:41:58.913Z,55.27
2018-10-01T18:44:26.451Z,55.05
2018-10-01T18:46:54.193Z,54.63
2018-10-01T18:49:21.833Z,54.70
2018-10-01T18:51:49.485Z,54.56
2018-10-01T18:54:17.196Z,54.49
2018-10-01T18:56:44.766Z,54.56
2018-10-01T18:59:12.465Z,55.30
2018-10-01T19:01:40.095Z,55.05
2018-10-01T19:04:07.735Z,55.33
2018-10-01T19:06:35.384Z,55.08
2018-10-01T19:09:03.159Z,55.16
2018-10-01T19:11:31.098Z,55.20
2018-10-01T19:13:58.722Z,54.85
2018-10-01T19:16:26.342Z,55.21
2018-10-01T19:18:54.005Z,55.05
2018-10-01T19:21:21.701Z,54.51
2018-10-01T19:23:49.434Z,54.30
2018-10-01T19:26:17.104Z,54.57
2018-10-01T19:28:44.732Z,55.20
2018-10-01T19:31:12.378Z,55.07
2018-10-01T19:33:40.042Z,55.38
2018-10-01T19:36:07.703Z,55.34
2018-10-01T19:38:35.324Z,54.59
2018-10-01T19:41:02.970Z,55.36
2018-10-01T19:43:30.682Z,54.58
2018-10-01T19:45:58.257Z,54.95
2018-10-01T19:48:25.948Z,55.55
2018-10-01T19:50:53.667Z,55.62
2018-10-01T19:53:21.363Z,54.77
2018-10-01T19:55:49.007Z,54.58
2018-10-01T19:58:16.645Z,54.54
2018-10-01T20:00:44.444Z,54.78
2018-10-01T20:03:12.191Z,55.33
2018-10-01T20:05:39.869Z,55.38
2018-10-01T20:08:07.542Z,55.30
2018-10-01T20:10:35.220Z,55.00
2018-10-01T20:13:02.991Z,55.12
2018-10-01T20:15:30.613Z,54.90
2018-10-01T20:17:58.247Z,55.37
2018-10-01T20:20:25.897Z,54.67
2018-10-01T20:22:53.593Z,54.57
2018-10-01T20:25:21.241Z,55.37
2018-10-01T20:27:48.989Z,55.27
2018-10-01T20:30:16.553Z,54.60
2018-10-01T20:32:44.199Z,54.76
2018-10-01T20:35:11.991Z,55.24
2018-10-01T20:37:39.510Z,54.60
2018-10-01T20:40:07.706Z,55.35
2018-10-01T20:42:35.358Z,54.99
2018-10-01T20:45:03.143Z,54.59
2018-10-01T20:47:30.783Z,55.14
2018-10-01T20:49:58.438Z,54.97
2018-10-01T20:52:26.237Z,54.41
2018-10-01T20:54:53.808Z,55.05
2018-10-01T20:57:21.508Z,55.26
2018-10-01T20:59:49.190Z,55.35
2018-10-01T21:02:16.807Z,55.21
2018-10-01T21:04:44.468Z,54.63
2018-10-01T21:07:12.074Z,54.92
2018-10-01T21:09:39.701Z,55.44
2018-10-01T21:12:07.325Z,54.70
2018-10-01T21:14:34.944Z,55.46
2018-10-01T21:17:02.585Z,55.76
2018-10-01T21:19:30.234Z,54.68
2018-10-01T21:21:57.890Z,54.77
2018-10-01T21:24:25.506Z,55.20
2018-10-01T21:26:53.116Z,54.79
2018-10-01T21:29:20.753Z,55.47
2018-10-01T21:31:48.381Z,55.48
2018-10-01T21:34:16.154Z,55.52
2018-10-01T21:36:43.810Z,54.81
2018-10-01T21:39:15.885Z,55.04
2018-10-01T21:41:43.543Z,55.49
2018-10-01T21:44:11.161Z,55.55
2018-10-01T21:46:38.801Z,54.96
2018-10-01T21:49:06.436Z,54.81
2018-10-01T21:51:34.098Z,55.50
2018-10-01T21:54:01.753Z,54.91
2018-10-01T21:56:29.377Z,55.53
2018-10-01T21:58:57.020Z,55.16
2018-10-01T22:01:29.852Z,55.51
2018-10-01T22:03:57.590Z,55.51
2018-10-01T22:06:25.217Z,55.42
2018-10-01T22:08:52.836Z,54.86
2018-10-01T22:11:20.465Z,55.20
2018-10-01T22:13:48.123Z,54.78
2018-10-01T22:16:15.740Z,54.80
2018-10-01T22:18:43.370Z,54.77
2018-10-01T22:21:11.026Z,55.14
2018-10-01T22:23:38.650Z,54.78
2018-10-01T22:26:06.326Z,55.74
2018-10-01T22:28:33.957Z,54.80
2018-10-01T22:31:01.588Z,54.83
2018-10-01T22:33:29.226Z,55.03
2018-10-01T22:35:56.875Z,54.81
2018-10-01T22:38:24.496Z,55.11
2018-10-01T22:40:52.125Z,55.36
2018-10-01T22:43:19.745Z,55.34
2018-10-01T22:45:47.389Z,54.90
2018-10-01T22:48:15.113Z,55.60
2018-10-01T22:50:42.806Z,55.21
2018-10-01T22:53:10.438Z,54.87
2018-10-01T22:55:38.071Z,54.84
2018-10-01T22:58:05.724Z,55.13
2018-10-01T23:00:33.353Z,55.61
2018-10-01T23:03:01.017Z,55.17
2018-10-01T23:05:28.645Z,54.86
2018-10-01T23:07:56.274Z,55.31
2018-10-01T23:10:23.920Z,55.11
2018-10-01T23:12:51.546Z,55.65
2018-10-01T23:15:19.173Z,55.21
2018-10-01T23:17:46.798Z,55.39
2018-10-01T23:20:14.452Z,55.29
2018-10-01T23:22:42.078Z,54.94
2018-10-01T23:25:09.700Z,54.91
2018-10-01T23:27:37.326Z,55.13
2018-10-01T23:30:04.961Z,54.77
2018-10-01T23:32:32.596Z,54.86
2018-10-01T23:35:00.213Z,55.29
2018-10-01T23:37:27.861Z,55.58
2018-10-01T23:39:55.510Z,55.59
2018-10-01T23:42:23.139Z,55.23
2018-10-01T23:44:50.775Z,54.89
2018-10-01T23:47:18.384Z,55.51
2018-10-01T23:49:46.066Z,55.65
2018-10-01T23:52:13.681Z,54.87
2018-10-01T23:54:41.353Z,55.00
2018-10-01T23:57:09.000Z,54.89
2018-10-01T23:59:36.616Z,55.67
